Rapid City, SD

9:13 PM MST on February 20, 2017 (GMT -0700)
Rapid City Regional | | Change Station
Active Advisory: Wind Advisory

Elev 3202 ft 44.05 °N, 103.06 °W | Updated 21 minutes ago

Clear
Clear
52 °F
Feels Like 52 °F
N
14
Wind Variable Wind from SSW

Today
High -- | Low -- °F
--% Chance of Precip.
Yesterday
High -- | Low -- °F
Precip. -- in
Pressure 29.78 in
Visibility 10.0 miles
Clouds Clear
Dew Point 30 °F
Humidity 43%
Rainfall 0.01 in
Snow Depth Not available.
6:43 AM 5:29 PM
Waning Crescent, 28% visible
METAR KRAP 210352Z 21012KT 10SM CLR 11/M01 A2978 RMK AO2 SLP082 T01111011
Pressure 29.78 in
Visibility 10.0 miles
Clouds Clear
Dew Point 30 °F
Humidity 43%
Rainfall 0.01 in
Snow Depth Not available.
6:43 AM 5:29 PM
Waning Crescent, 28% visible
METAR KRAP 210352Z 21012KT 10SM CLR 11/M01 A2978 RMK AO2 SLP082 T01111011

Get Your Daily Forecast Email!

Thanks for signing up!

Be on the lookout for a verification email in your inbox.

You'll start receiving the daily forecast at 8 AM.

×

10-Day Weather Forecast

Almanac

Astronomy

Feb. 20, 2017 Rise Set
Actual Time
Civil Twilight
Nautical Twilight
Astronomical Twilight
Moon
Length of Visible Light
Length of Day
Tomorrow will be .
, % of the Moon is Illuminated

Today's Extremes

State Highs State Lows

Community

WunderPhotos

Upload Photos

1,962,540 photos uploaded!

WunderBlog® & News

Nearby

Air Quality

  Air Quality AQ Index Pollutant
Not available.

Snow Depth

Station Depth Elevation

Earthquake Activity

City Distance Mag. Time & Date
Minimum magnitude displayed is 2.5.

Coastal Water Temperatures

Place Temperature

Stations

Nearby Weather Stations

Station Location Temp. Windchill Dew Point Humidity Wind Precip. Elev Updated Type
                   

Watches & Warnings

Wind Advisory
Issued: 8:33 PM MST Feb. 20, 2017 – National Weather Service

... Wind Advisory in effect until 5 PM MST Tuesday...

The National Weather Service in Rapid City has issued a Wind
Advisory... which is in effect until 5 PM MST Tuesday.

* Timing... winds will increase overnight and continue through
Tuesday afternoon.

* Winds... west 25 to 35 mph with gusts up to 50 mph.

* Impacts... sudden wind gusts can cause drivers to lose control,
especially in lightweight or high profile vehicles. Strong
winds can cause blowing dust, reduced visibility, and flying
debris.

Precautionary/preparedness actions...

A Wind Advisory means 30 mph winds... or gusts over 45 mph... are
expected or occurring.